sensor_id;sensor_type;location;lat;lon;timestamp;temperature;humidity
33955;DHT22;20233;50.804;7.126;2023-08-07T00:00:09;14.20;99.90
33955;DHT22;20233;50.804;7.126;2023-08-07T00:02:35;14.30;99.90
33955;DHT22;20233;50.804;7.126;2023-08-07T00:07:27;14.10;99.90
33955;DHT22;20233;50.804;7.126;2023-08-07T00:09:52;14.10;99.90
33955;DHT22;20233;50.804;7.126;2023-08-07T00:12:18;14.10;99.90
33955;DHT22;20233;50.804;7.126;2023-08-07T00:14:43;14.00;99.90
33955;DHT22;20233;50.804;7.126;2023-08-07T00:17:09;14.00;99.90
33955;DHT22;20233;50.804;7.126;2023-08-07T00:19:36;14.00;99.90
33955;DHT22;20233;50.804;7.126;2023-08-07T00:22:01;13.90;99.90
33955;DHT22;20233;50.804;7.126;2023-08-07T00:24:26;14.00;99.90
33955;DHT22;20233;50.804;7.126;2023-08-07T00:26:52;14.10;99.90
33955;DHT22;20233;50.804;7.126;2023-08-07T00:29:17;13.90;99.90
33955;DHT22;20233;50.804;7.126;2023-08-07T00:31:43;14.00;99.90
33955;DHT22;20233;50.804;7.126;2023-08-07T00:34:08;14.00;99.90
33955;DHT22;20233;50.804;7.126;2023-08-07T00:36:35;14.00;99.90
33955;DHT22;20233;50.804;7.126;2023-08-07T00:39:01;13.90;99.90
33955;DHT22;20233;50.804;7.126;2023-08-07T00:41:29;13.90;99.90
33955;DHT22;20233;50.804;7.126;2023-08-07T00:43:54;14.00;99.90
33955;DHT22;20233;50.804;7.126;2023-08-07T00:46:20;13.90;99.90
33955;DHT22;20233;50.804;7.126;2023-08-07T00:48:45;13.90;99.90
33955;DHT22;20233;50.804;7.126;2023-08-07T00:51:11;14.00;99.90
33955;DHT22;20233;50.804;7.126;2023-08-07T00:53:38;13.90;99.90
33955;DHT22;20233;50.804;7.126;2023-08-07T00:56:05;13.90;99.90
33955;DHT22;20233;50.804;7.126;2023-08-07T00:58:31;14.00;99.90
33955;DHT22;20233;50.804;7.126;2023-08-07T01:00:58;13.90;99.90
33955;DHT22;20233;50.804;7.126;2023-08-07T01:03:23;14.00;99.90
33955;DHT22;20233;50.804;7.126;2023-08-07T01:05:49;13.90;99.90
33955;DHT22;20233;50.804;7.126;2023-08-07T01:08:16;14.10;99.90
33955;DHT22;20233;50.804;7.126;2023-08-07T01:11:11;13.90;99.90
33955;DHT22;20233;50.804;7.126;2023-08-07T01:16:37;13.80;99.90
33955;DHT22;20233;50.804;7.126;2023-08-07T01:19:04;13.80;99.90
33955;DHT22;20233;50.804;7.126;2023-08-07T01:21:34;13.70;99.90
33955;DHT22;20233;50.804;7.126;2023-08-07T01:23:59;13.90;99.90
33955;DHT22;20233;50.804;7.126;2023-08-07T01:26:25;13.70;99.90
33955;DHT22;20233;50.804;7.126;2023-08-07T01:29:05;13.90;99.90
33955;DHT22;20233;50.804;7.126;2023-08-07T01:31:33;13.90;99.90
33955;DHT22;20233;50.804;7.126;2023-08-07T01:34:05;14.00;99.90
33955;DHT22;20233;50.804;7.126;2023-08-07T01:36:33;13.90;99.90
33955;DHT22;20233;50.804;7.126;2023-08-07T01:39:00;13.90;99.90
33955;DHT22;20233;50.804;7.126;2023-08-07T01:41:27;14.00;99.90
33955;DHT22;20233;50.804;7.126;2023-08-07T01:43:53;14.00;99.90
33955;DHT22;20233;50.804;7.126;2023-08-07T01:46:19;14.00;99.90
33955;DHT22;20233;50.804;7.126;2023-08-07T01:48:45;14.10;99.90
33955;DHT22;20233;50.804;7.126;2023-08-07T01:51:11;14.20;99.90
33955;DHT22;20233;50.804;7.126;2023-08-07T01:53:36;14.20;99.90
33955;DHT22;20233;50.804;7.126;2023-08-07T01:56:02;14.10;99.90
33955;DHT22;20233;50.804;7.126;2023-08-07T01:58:28;14.10;99.90
33955;DHT22;20233;50.804;7.126;2023-08-07T02:00:53;14.20;99.90
33955;DHT22;20233;50.804;7.126;2023-08-07T02:03:20;14.10;99.90
33955;DHT22;20233;50.804;7.126;2023-08-07T02:05:46;14.10;99.90
33955;DHT22;20233;50.804;7.126;2023-08-07T02:08:12;14.10;99.90
33955;DHT22;20233;50.804;7.126;2023-08-07T02:10:38;14.10;99.90
33955;DHT22;20233;50.804;7.126;2023-08-07T02:13:03;14.20;99.90
33955;DHT22;20233;50.804;7.126;2023-08-07T02:15:29;14.10;99.90
33955;DHT22;20233;50.804;7.126;2023-08-07T02:17:54;14.10;99.90
33955;DHT22;20233;50.804;7.126;2023-08-07T02:20:20;14.00;99.90
33955;DHT22;20233;50.804;7.126;2023-08-07T02:22:45;14.00;99.90
33955;DHT22;20233;50.804;7.126;2023-08-07T02:25:11;13.90;99.90
33955;DHT22;20233;50.804;7.126;2023-08-07T02:27:36;14.00;99.90
33955;DHT22;20233;50.804;7.126;2023-08-07T02:30:02;14.00;99.90
33955;DHT22;20233;50.804;7.126;2023-08-07T02:32:30;14.10;99.90
33955;DHT22;20233;50.804;7.126;2023-08-07T02:34:55;14.10;99.90
33955;DHT22;20233;50.804;7.126;2023-08-07T02:37:21;14.00;99.90
33955;DHT22;20233;50.804;7.126;2023-08-07T02:39:47;14.00;99.90
33955;DHT22;20233;50.804;7.126;2023-08-07T02:42:12;14.10;99.90
33955;DHT22;20233;50.804;7.126;2023-08-07T02:44:38;14.10;99.90
33955;DHT22;20233;50.804;7.126;2023-08-07T02:47:03;14.10;99.90
33955;DHT22;20233;50.804;7.126;2023-08-07T02:49:29;14.00;99.90
33955;DHT22;20233;50.804;7.126;2023-08-07T02:51:55;14.00;99.90
33955;DHT22;20233;50.804;7.126;2023-08-07T02:54:20;14.00;99.90
33955;DHT22;20233;50.804;7.126;2023-08-07T02:56:46;14.10;99.90
33955;DHT22;20233;50.804;7.126;2023-08-07T02:59:11;14.10;99.90
33955;DHT22;20233;50.804;7.126;2023-08-07T03:01:37;14.00;99.90
33955;DHT22;20233;50.804;7.126;2023-08-07T03:04:02;14.00;99.90
33955;DHT22;20233;50.804;7.126;2023-08-07T03:06:28;14.00;99.90
33955;DHT22;20233;50.804;7.126;2023-08-07T03:08:54;13.90;99.90
33955;DHT22;20233;50.804;7.126;2023-08-07T03:11:19;13.90;99.90
33955;DHT22;20233;50.804;7.126;2023-08-07T03:13:45;13.90;99.90
33955;DHT22;20233;50.804;7.126;2023-08-07T03:16:10;14.00;99.90
33955;DHT22;20233;50.804;7.126;2023-08-07T03:18:36;13.90;99.90
33955;DHT22;20233;50.804;7.126;2023-08-07T03:21:02;13.80;99.90
33955;DHT22;20233;50.804;7.126;2023-08-07T03:23:28;13.80;99.90
33955;DHT22;20233;50.804;7.126;2023-08-07T03:26:09;13.90;99.90
33955;DHT22;20233;50.804;7.126;2023-08-07T03:28:35;13.80;99.90
33955;DHT22;20233;50.804;7.126;2023-08-07T03:31:01;13.80;99.90
33955;DHT22;20233;50.804;7.126;2023-08-07T03:33:26;13.90;99.90
33955;DHT22;20233;50.804;7.126;2023-08-07T03:35:52;13.90;99.90
33955;DHT22;20233;50.804;7.126;2023-08-07T03:38:18;13.80;99.90
33955;DHT22;20233;50.804;7.126;2023-08-07T03:40:43;13.80;99.90
33955;DHT22;20233;50.804;7.126;2023-08-07T03:43:09;13.70;99.90
33955;DHT22;20233;50.804;7.126;2023-08-07T03:45:35;13.70;99.90
33955;DHT22;20233;50.804;7.126;2023-08-07T03:48:00;13.70;99.90
33955;DHT22;20233;50.804;7.126;2023-08-07T03:50:26;13.70;99.90
33955;DHT22;20233;50.804;7.126;2023-08-07T03:52:52;13.70;99.90
33955;DHT22;20233;50.804;7.126;2023-08-07T03:55:17;13.70;99.90
33955;DHT22;20233;50.804;7.126;2023-08-07T03:57:43;13.50;99.90
33955;DHT22;20233;50.804;7.126;2023-08-07T04:00:09;13.50;99.90
33955;DHT22;20233;50.804;7.126;2023-08-07T04:02:35;13.50;99.90
33955;DHT22;20233;50.804;7.126;2023-08-07T04:05:01;13.60;99.90
33955;DHT22;20233;50.804;7.126;2023-08-07T04:07:26;13.60;99.90
33955;DHT22;20233;50.804;7.126;2023-08-07T04:09:51;13.60;99.90
33955;DHT22;20233;50.804;7.126;2023-08-07T04:12:17;13.70;99.90
33955;DHT22;20233;50.804;7.126;2023-08-07T04:14:42;13.70;99.90
33955;DHT22;20233;50.804;7.126;2023-08-07T04:17:08;13.70;99.90
33955;DHT22;20233;50.804;7.126;2023-08-07T04:22:00;13.40;99.90
33955;DHT22;20233;50.804;7.126;2023-08-07T04:24:26;13.40;99.90
33955;DHT22;20233;50.804;7.126;2023-08-07T04:26:51;13.50;99.90
33955;DHT22;20233;50.804;7.126;2023-08-07T04:29:18;13.40;99.90
33955;DHT22;20233;50.804;7.126;2023-08-07T04:31:44;13.40;99.90
33955;DHT22;20233;50.804;7.126;2023-08-07T04:34:09;13.40;99.90
33955;DHT22;20233;50.804;7.126;2023-08-07T04:36:36;13.40;99.90
33955;DHT22;20233;50.804;7.126;2023-08-07T04:39:01;13.40;99.90
33955;DHT22;20233;50.804;7.126;2023-08-07T04:41:27;13.40;99.90
33955;DHT22;20233;50.804;7.126;2023-08-07T04:43:53;13.40;99.90
33955;DHT22;20233;50.804;7.126;2023-08-07T04:46:18;13.40;99.90
33955;DHT22;20233;50.804;7.126;2023-08-07T04:48:44;13.50;99.90
33955;DHT22;20233;50.804;7.126;2023-08-07T04:51:09;13.40;99.90
33955;DHT22;20233;50.804;7.126;2023-08-07T04:53:36;13.60;99.90
33955;DHT22;20233;50.804;7.126;2023-08-07T04:56:02;13.60;99.90
33955;DHT22;20233;50.804;7.126;2023-08-07T04:58:28;13.50;99.90
33955;DHT22;20233;50.804;7.126;2023-08-07T05:00:56;13.50;99.90
33955;DHT22;20233;50.804;7.126;2023-08-07T05:03:23;13.40;99.90
33955;DHT22;20233;50.804;7.126;2023-08-07T05:05:49;13.50;99.90
33955;DHT22;20233;50.804;7.126;2023-08-07T05:08:17;13.50;99.90
33955;DHT22;20233;50.804;7.126;2023-08-07T05:10:43;13.50;99.90
33955;DHT22;20233;50.804;7.126;2023-08-07T05:13:09;13.70;99.90
33955;DHT22;20233;50.804;7.126;2023-08-07T05:15:36;13.70;99.90
33955;DHT22;20233;50.804;7.126;2023-08-07T05:18:02;13.80;99.90
33955;DHT22;20233;50.804;7.126;2023-08-07T05:20:29;13.70;99.90
33955;DHT22;20233;50.804;7.126;2023-08-07T05:22:55;13.70;99.90
33955;DHT22;20233;50.804;7.126;2023-08-07T05:25:22;13.70;99.90
33955;DHT22;20233;50.804;7.126;2023-08-07T05:27:48;13.80;99.90
33955;DHT22;20233;50.804;7.126;2023-08-07T05:30:14;13.70;99.90
33955;DHT22;20233;50.804;7.126;2023-08-07T05:32:41;13.80;99.90
33955;DHT22;20233;50.804;7.126;2023-08-07T05:35:08;13.80;99.90
33955;DHT22;20233;50.804;7.126;2023-08-07T05:37:36;13.80;99.90
33955;DHT22;20233;50.804;7.126;2023-08-07T05:40:03;13.90;99.90
33955;DHT22;20233;50.804;7.126;2023-08-07T05:42:29;14.00;99.90
33955;DHT22;20233;50.804;7.126;2023-08-07T05:44:55;13.90;99.90
33955;DHT22;20233;50.804;7.126;2023-08-07T05:47:22;14.10;99.90
33955;DHT22;20233;50.804;7.126;2023-08-07T05:49:49;14.10;99.90
33955;DHT22;20233;50.804;7.126;2023-08-07T05:52:16;14.10;99.90
33955;DHT22;20233;50.804;7.126;2023-08-07T05:54:43;14.10;99.90
33955;DHT22;20233;50.804;7.126;2023-08-07T05:57:10;14.10;99.90
33955;DHT22;20233;50.804;7.126;2023-08-07T05:59:36;14.10;99.90
33955;DHT22;20233;50.804;7.126;2023-08-07T06:02:03;14.10;99.90
33955;DHT22;20233;50.804;7.126;2023-08-07T06:04:29;14.20;99.90
33955;DHT22;20233;50.804;7.126;2023-08-07T06:06:55;14.20;99.90
33955;DHT22;20233;50.804;7.126;2023-08-07T06:09:21;14.30;99.90
33955;DHT22;20233;50.804;7.126;2023-08-07T06:11:48;14.20;99.90
33955;DHT22;20233;50.804;7.126;2023-08-07T06:14:16;14.10;99.90
33955;DHT22;20233;50.804;7.126;2023-08-07T06:16:43;14.10;99.90
33955;DHT22;20233;50.804;7.126;2023-08-07T06:19:09;14.00;99.90
33955;DHT22;20233;50.804;7.126;2023-08-07T06:21:36;14.00;99.90
33955;DHT22;20233;50.804;7.126;2023-08-07T06:24:02;14.00;99.90
33955;DHT22;20233;50.804;7.126;2023-08-07T06:26:30;14.10;99.90
33955;DHT22;20233;50.804;7.126;2023-08-07T06:29:05;14.10;99.90
33955;DHT22;20233;50.804;7.126;2023-08-07T06:31:32;14.00;99.90
33955;DHT22;20233;50.804;7.126;2023-08-07T06:33:58;14.00;99.90
33955;DHT22;20233;50.804;7.126;2023-08-07T06:36:25;14.00;99.90
33955;DHT22;20233;50.804;7.126;2023-08-07T06:38:52;13.90;99.90
33955;DHT22;20233;50.804;7.126;2023-08-07T06:41:18;13.80;99.90
33955;DHT22;20233;50.804;7.126;2023-08-07T06:43:45;13.70;99.90
33955;DHT22;20233;50.804;7.126;2023-08-07T06:46:11;13.50;99.90
33955;DHT22;20233;50.804;7.126;2023-08-07T06:48:37;13.50;99.90
33955;DHT22;20233;50.804;7.126;2023-08-07T06:51:03;13.70;99.90
33955;DHT22;20233;50.804;7.126;2023-08-07T06:53:29;13.60;99.90
33955;DHT22;20233;50.804;7.126;2023-08-07T06:55:55;13.60;99.90
33955;DHT22;20233;50.804;7.126;2023-08-07T06:58:21;13.50;99.90
33955;DHT22;20233;50.804;7.126;2023-08-07T07:00:48;13.60;99.90
33955;DHT22;20233;50.804;7.126;2023-08-07T07:03:14;13.50;99.90
33955;DHT22;20233;50.804;7.126;2023-08-07T07:05:41;13.40;99.90
33955;DHT22;20233;50.804;7.126;2023-08-07T07:08:09;13.50;99.90
33955;DHT22;20233;50.804;7.126;2023-08-07T07:10:35;13.50;99.90
33955;DHT22;20233;50.804;7.126;2023-08-07T07:13:04;13.50;99.90
33955;DHT22;20233;50.804;7.126;2023-08-07T07:15:31;13.50;99.90
33955;DHT22;20233;50.804;7.126;2023-08-07T07:17:57;13.50;99.90
33955;DHT22;20233;50.804;7.126;2023-08-07T07:20:23;13.40;99.90
33955;DHT22;20233;50.804;7.126;2023-08-07T07:22:51;13.50;99.90
33955;DHT22;20233;50.804;7.126;2023-08-07T07:25:17;13.40;99.90
33955;DHT22;20233;50.804;7.126;2023-08-07T07:27:44;13.40;99.90
33955;DHT22;20233;50.804;7.126;2023-08-07T07:30:10;13.40;99.90
33955;DHT22;20233;50.804;7.126;2023-08-07T07:32:37;13.40;99.90
33955;DHT22;20233;50.804;7.126;2023-08-07T07:35:02;13.30;99.90
33955;DHT22;20233;50.804;7.126;2023-08-07T07:39:57;13.40;99.90
33955;DHT22;20233;50.804;7.126;2023-08-07T07:42:23;13.30;99.90
33955;DHT22;20233;50.804;7.126;2023-08-07T07:44:49;13.40;99.90
33955;DHT22;20233;50.804;7.126;2023-08-07T07:47:18;13.40;99.90
33955;DHT22;20233;50.804;7.126;2023-08-07T07:49:46;13.50;99.90
33955;DHT22;20233;50.804;7.126;2023-08-07T07:52:15;13.40;99.90
33955;DHT22;20233;50.804;7.126;2023-08-07T07:54:41;13.50;99.90
33955;DHT22;20233;50.804;7.126;2023-08-07T07:57:07;13.50;99.90
33955;DHT22;20233;50.804;7.126;2023-08-07T07:59:33;13.60;99.90
33955;DHT22;20233;50.804;7.126;2023-08-07T08:01:59;13.50;99.90
33955;DHT22;20233;50.804;7.126;2023-08-07T08:04:25;13.50;99.90
33955;DHT22;20233;50.804;7.126;2023-08-07T08:06:52;13.60;99.90
33955;DHT22;20233;50.804;7.126;2023-08-07T08:09:18;13.60;99.90
33955;DHT22;20233;50.804;7.126;2023-08-07T08:11:45;13.70;99.90
33955;DHT22;20233;50.804;7.126;2023-08-07T08:14:11;13.70;99.90
33955;DHT22;20233;50.804;7.126;2023-08-07T08:16:37;13.70;99.90
33955;DHT22;20233;50.804;7.126;2023-08-07T08:19:03;13.70;99.90
33955;DHT22;20233;50.804;7.126;2023-08-07T08:21:29;13.80;99.90
33955;DHT22;20233;50.804;7.126;2023-08-07T08:23:56;13.90;99.90
33955;DHT22;20233;50.804;7.126;2023-08-07T08:26:22;13.80;99.90
33955;DHT22;20233;50.804;7.126;2023-08-07T08:28:48;13.90;99.90
33955;DHT22;20233;50.804;7.126;2023-08-07T08:31:14;14.10;99.90
33955;DHT22;20233;50.804;7.126;2023-08-07T08:33:40;14.00;99.90
33955;DHT22;20233;50.804;7.126;2023-08-07T08:36:05;14.20;99.90
33955;DHT22;20233;50.804;7.126;2023-08-07T08:38:31;14.20;99.90
33955;DHT22;20233;50.804;7.126;2023-08-07T08:41:02;14.40;99.90
33955;DHT22;20233;50.804;7.126;2023-08-07T08:43:29;14.20;99.90
33955;DHT22;20233;50.804;7.126;2023-08-07T08:45:59;14.30;99.90
33955;DHT22;20233;50.804;7.126;2023-08-07T08:48:27;14.40;99.90
33955;DHT22;20233;50.804;7.126;2023-08-07T08:50:56;14.40;99.90
33955;DHT22;20233;50.804;7.126;2023-08-07T08:53:22;14.50;99.90
33955;DHT22;20233;50.804;7.126;2023-08-07T08:55:49;14.50;99.90
33955;DHT22;20233;50.804;7.126;2023-08-07T08:58:16;14.40;99.90
33955;DHT22;20233;50.804;7.126;2023-08-07T09:00:42;14.40;99.90
33955;DHT22;20233;50.804;7.126;2023-08-07T09:03:08;14.60;99.90
33955;DHT22;20233;50.804;7.126;2023-08-07T09:05:34;14.60;99.90
33955;DHT22;20233;50.804;7.126;2023-08-07T09:08:00;14.80;99.90
33955;DHT22;20233;50.804;7.126;2023-08-07T09:10:26;14.70;99.90
33955;DHT22;20233;50.804;7.126;2023-08-07T09:13:03;14.50;99.90
33955;DHT22;20233;50.804;7.126;2023-08-07T09:15:31;14.60;99.90
33955;DHT22;20233;50.804;7.126;2023-08-07T09:17:58;14.80;99.90
33955;DHT22;20233;50.804;7.126;2023-08-07T09:20:27;14.70;99.90
33955;DHT22;20233;50.804;7.126;2023-08-07T09:22:53;14.70;99.90
33955;DHT22;20233;50.804;7.126;2023-08-07T09:25:30;15.00;99.90
33955;DHT22;20233;50.804;7.126;2023-08-07T09:27:58;15.10;99.90
33955;DHT22;20233;50.804;7.126;2023-08-07T09:30:30;15.10;99.90
33955;DHT22;20233;50.804;7.126;2023-08-07T09:32:59;15.30;99.90
33955;DHT22;20233;50.804;7.126;2023-08-07T09:35:25;15.40;99.90
33955;DHT22;20233;50.804;7.126;2023-08-07T09:37:51;15.50;99.90
33955;DHT22;20233;50.804;7.126;2023-08-07T09:40:18;15.40;99.90
33955;DHT22;20233;50.804;7.126;2023-08-07T09:42:44;15.50;99.90
33955;DHT22;20233;50.804;7.126;2023-08-07T09:45:26;15.50;99.90
33955;DHT22;20233;50.804;7.126;2023-08-07T09:48:01;15.60;99.90
33955;DHT22;20233;50.804;7.126;2023-08-07T09:50:27;15.80;99.90
33955;DHT22;20233;50.804;7.126;2023-08-07T09:52:54;15.80;99.90
33955;DHT22;20233;50.804;7.126;2023-08-07T09:55:21;15.80;99.90
33955;DHT22;20233;50.804;7.126;2023-08-07T09:57:47;15.90;99.90
33955;DHT22;20233;50.804;7.126;2023-08-07T10:00:13;16.00;99.90
33955;DHT22;20233;50.804;7.126;2023-08-07T10:02:42;15.90;99.90
33955;DHT22;20233;50.804;7.126;2023-08-07T10:05:10;16.00;99.90
33955;DHT22;20233;50.804;7.126;2023-08-07T10:07:37;16.00;99.90
33955;DHT22;20233;50.804;7.126;2023-08-07T10:10:04;16.20;99.90
33955;DHT22;20233;50.804;7.126;2023-08-07T10:12:29;16.30;99.90
33955;DHT22;20233;50.804;7.126;2023-08-07T10:14:55;16.40;99.90
33955;DHT22;20233;50.804;7.126;2023-08-07T10:17:24;16.60;99.90
33955;DHT22;20233;50.804;7.126;2023-08-07T10:19:51;16.50;99.90
33955;DHT22;20233;50.804;7.126;2023-08-07T10:22:18;16.50;99.90
33955;DHT22;20233;50.804;7.126;2023-08-07T10:24:47;16.30;99.90
33955;DHT22;20233;50.804;7.126;2023-08-07T10:27:16;16.00;99.90
33955;DHT22;20233;50.804;7.126;2023-08-07T10:29:44;16.30;99.90
33955;DHT22;20233;50.804;7.126;2023-08-07T10:32:11;16.60;99.90
33955;DHT22;20233;50.804;7.126;2023-08-07T10:34:37;16.60;99.90
33955;DHT22;20233;50.804;7.126;2023-08-07T10:37:07;16.80;99.90
33955;DHT22;20233;50.804;7.126;2023-08-07T10:39:33;17.00;99.90
33955;DHT22;20233;50.804;7.126;2023-08-07T10:41:59;16.90;99.90
33955;DHT22;20233;50.804;7.126;2023-08-07T10:44:30;17.30;99.90
33955;DHT22;20233;50.804;7.126;2023-08-07T10:46:59;17.00;99.90
33955;DHT22;20233;50.804;7.126;2023-08-07T10:49:40;17.00;99.90
33955;DHT22;20233;50.804;7.126;2023-08-07T10:54:49;17.20;99.90
33955;DHT22;20233;50.804;7.126;2023-08-07T10:57:16;17.60;99.90
33955;DHT22;20233;50.804;7.126;2023-08-07T11:02:25;17.90;99.90
33955;DHT22;20233;50.804;7.126;2023-08-07T11:04:52;17.80;99.90
33955;DHT22;20233;50.804;7.126;2023-08-07T11:07:29;17.80;99.90
33955;DHT22;20233;50.804;7.126;2023-08-07T11:09:56;17.90;99.90
33955;DHT22;20233;50.804;7.126;2023-08-07T11:12:28;18.00;99.90
33955;DHT22;20233;50.804;7.126;2023-08-07T11:14:55;18.00;99.90
33955;DHT22;20233;50.804;7.126;2023-08-07T11:17:27;18.20;99.90
33955;DHT22;20233;50.804;7.126;2023-08-07T11:19:54;18.10;99.90
33955;DHT22;20233;50.804;7.126;2023-08-07T11:22:20;18.20;99.90
33955;DHT22;20233;50.804;7.126;2023-08-07T11:24:46;18.10;99.90
33955;DHT22;20233;50.804;7.126;2023-08-07T11:27:12;18.30;99.90
33955;DHT22;20233;50.804;7.126;2023-08-07T11:29:38;18.10;99.90
33955;DHT22;20233;50.804;7.126;2023-08-07T11:32:05;18.20;99.90
33955;DHT22;20233;50.804;7.126;2023-08-07T11:34:30;18.30;99.90
33955;DHT22;20233;50.804;7.126;2023-08-07T11:36:56;18.40;99.90
33955;DHT22;20233;50.804;7.126;2023-08-07T11:39:23;18.40;99.90
33955;DHT22;20233;50.804;7.126;2023-08-07T11:41:53;18.30;99.90
33955;DHT22;20233;50.804;7.126;2023-08-07T11:44:19;18.40;99.90
33955;DHT22;20233;50.804;7.126;2023-08-07T11:49:12;18.90;99.90
33955;DHT22;20233;50.804;7.126;2023-08-07T11:51:37;18.80;99.90
33955;DHT22;20233;50.804;7.126;2023-08-07T11:54:03;18.80;99.90
33955;DHT22;20233;50.804;7.126;2023-08-07T11:56:29;18.90;99.90
33955;DHT22;20233;50.804;7.126;2023-08-07T11:58:56;19.00;99.90
33955;DHT22;20233;50.804;7.126;2023-08-07T12:01:25;19.00;99.90
33955;DHT22;20233;50.804;7.126;2023-08-07T12:06:34;18.50;99.90
33955;DHT22;20233;50.804;7.126;2023-08-07T12:09:01;18.50;99.90
33955;DHT22;20233;50.804;7.126;2023-08-07T12:11:29;18.70;99.90
33955;DHT22;20233;50.804;7.126;2023-08-07T12:13:54;19.00;99.90
33955;DHT22;20233;50.804;7.126;2023-08-07T12:16:20;19.20;99.90
33955;DHT22;20233;50.804;7.126;2023-08-07T12:18:50;19.00;99.90
33955;DHT22;20233;50.804;7.126;2023-08-07T12:21:18;18.90;99.90
33955;DHT22;20233;50.804;7.126;2023-08-07T12:23:49;19.00;99.90
33955;DHT22;20233;50.804;7.126;2023-08-07T12:26:16;18.80;99.90
33955;DHT22;20233;50.804;7.126;2023-08-07T12:28:42;18.80;99.90
33955;DHT22;20233;50.804;7.126;2023-08-07T12:31:08;18.70;99.90
33955;DHT22;20233;50.804;7.126;2023-08-07T12:33:34;18.60;99.90
33955;DHT22;20233;50.804;7.126;2023-08-07T12:36:00;18.90;99.90
33955;DHT22;20233;50.804;7.126;2023-08-07T12:38:26;19.20;99.90
33955;DHT22;20233;50.804;7.126;2023-08-07T12:40:52;19.20;99.90
33955;DHT22;20233;50.804;7.126;2023-08-07T12:43:18;19.20;99.90
33955;DHT22;20233;50.804;7.126;2023-08-07T12:45:44;19.40;99.90
33955;DHT22;20233;50.804;7.126;2023-08-07T12:48:10;19.70;99.90
33955;DHT22;20233;50.804;7.126;2023-08-07T12:50:36;19.80;99.90
33955;DHT22;20233;50.804;7.126;2023-08-07T12:53:02;19.90;99.90
33955;DHT22;20233;50.804;7.126;2023-08-07T12:55:28;19.90;99.90
33955;DHT22;20233;50.804;7.126;2023-08-07T12:57:55;20.00;99.90
33955;DHT22;20233;50.804;7.126;2023-08-07T13:00:21;20.10;99.90
33955;DHT22;20233;50.804;7.126;2023-08-07T13:02:48;20.00;99.90
33955;DHT22;20233;50.804;7.126;2023-08-07T13:05:14;19.70;99.90
33955;DHT22;20233;50.804;7.126;2023-08-07T13:07:42;19.50;99.90
33955;DHT22;20233;50.804;7.126;2023-08-07T13:10:10;20.00;99.90
33955;DHT22;20233;50.804;7.126;2023-08-07T13:12:36;20.30;99.90
33955;DHT22;20233;50.804;7.126;2023-08-07T13:15:03;19.80;99.90
33955;DHT22;20233;50.804;7.126;2023-08-07T13:17:30;19.30;99.90
33955;DHT22;20233;50.804;7.126;2023-08-07T13:19:56;19.40;99.90
33955;DHT22;20233;50.804;7.126;2023-08-07T13:22:22;19.40;99.90
33955;DHT22;20233;50.804;7.126;2023-08-07T13:24:48;19.30;99.90
33955;DHT22;20233;50.804;7.126;2023-08-07T13:27:13;19.40;99.90
33955;DHT22;20233;50.804;7.126;2023-08-07T13:29:39;19.70;99.90
33955;DHT22;20233;50.804;7.126;2023-08-07T13:32:06;19.90;99.90
33955;DHT22;20233;50.804;7.126;2023-08-07T13:34:35;20.10;99.90
33955;DHT22;20233;50.804;7.126;2023-08-07T13:37:02;20.10;99.90
33955;DHT22;20233;50.804;7.126;2023-08-07T13:39:27;20.50;99.90
33955;DHT22;20233;50.804;7.126;2023-08-07T13:41:53;20.40;99.90
33955;DHT22;20233;50.804;7.126;2023-08-07T13:44:19;19.70;99.90
33955;DHT22;20233;50.804;7.126;2023-08-07T13:46:45;20.00;99.90
33955;DHT22;20233;50.804;7.126;2023-08-07T13:49:13;19.70;99.90
33955;DHT22;20233;50.804;7.126;2023-08-07T13:51:38;19.40;99.90
33955;DHT22;20233;50.804;7.126;2023-08-07T13:54:04;19.20;99.90
33955;DHT22;20233;50.804;7.126;2023-08-07T13:56:29;19.30;99.90
33955;DHT22;20233;50.804;7.126;2023-08-07T13:58:55;19.50;99.90
33955;DHT22;20233;50.804;7.126;2023-08-07T14:01:21;19.90;99.90
33955;DHT22;20233;50.804;7.126;2023-08-07T14:03:46;20.00;99.90
33955;DHT22;20233;50.804;7.126;2023-08-07T14:06:12;19.40;99.90
33955;DHT22;20233;50.804;7.126;2023-08-07T14:08:37;19.70;99.90
33955;DHT22;20233;50.804;7.126;2023-08-07T14:11:03;19.40;99.90
33955;DHT22;20233;50.804;7.126;2023-08-07T14:13:31;19.20;99.90
33955;DHT22;20233;50.804;7.126;2023-08-07T14:15:59;19.20;99.90
33955;DHT22;20233;50.804;7.126;2023-08-07T14:18:26;19.10;99.90
33955;DHT22;20233;50.804;7.126;2023-08-07T14:20:52;19.10;99.90
33955;DHT22;20233;50.804;7.126;2023-08-07T14:23:18;18.30;99.90
33955;DHT22;20233;50.804;7.126;2023-08-07T14:25:45;17.70;99.90
33955;DHT22;20233;50.804;7.126;2023-08-07T14:28:14;17.50;99.90
33955;DHT22;20233;50.804;7.126;2023-08-07T14:30:40;17.60;99.90
33955;DHT22;20233;50.804;7.126;2023-08-07T14:33:07;18.00;99.90
33955;DHT22;20233;50.804;7.126;2023-08-07T14:35:33;17.70;99.90
33955;DHT22;20233;50.804;7.126;2023-08-07T14:38:02;18.10;99.90
33955;DHT22;20233;50.804;7.126;2023-08-07T14:40:32;18.40;99.90
33955;DHT22;20233;50.804;7.126;2023-08-07T14:42:59;18.40;99.90
33955;DHT22;20233;50.804;7.126;2023-08-07T14:45:25;18.60;99.90
33955;DHT22;20233;50.804;7.126;2023-08-07T14:47:52;18.50;99.90
33955;DHT22;20233;50.804;7.126;2023-08-07T14:50:19;18.50;99.90
33955;DHT22;20233;50.804;7.126;2023-08-07T14:52:46;18.10;99.90
33955;DHT22;20233;50.804;7.126;2023-08-07T14:55:13;18.10;99.90
33955;DHT22;20233;50.804;7.126;2023-08-07T14:57:39;18.20;99.90
33955;DHT22;20233;50.804;7.126;2023-08-07T15:00:06;18.20;99.90
33955;DHT22;20233;50.804;7.126;2023-08-07T15:02:34;18.10;99.90
33955;DHT22;20233;50.804;7.126;2023-08-07T15:05:00;18.20;99.90
33955;DHT22;20233;50.804;7.126;2023-08-07T15:07:26;18.30;99.90
33955;DHT22;20233;50.804;7.126;2023-08-07T15:09:52;18.30;99.90
33955;DHT22;20233;50.804;7.126;2023-08-07T15:12:18;18.20;99.90
33955;DHT22;20233;50.804;7.126;2023-08-07T15:14:45;18.20;99.90
33955;DHT22;20233;50.804;7.126;2023-08-07T15:17:11;18.50;99.90
33955;DHT22;20233;50.804;7.126;2023-08-07T15:19:38;18.70;99.90
33955;DHT22;20233;50.804;7.126;2023-08-07T15:22:04;18.90;99.90
33955;DHT22;20233;50.804;7.126;2023-08-07T15:24:31;19.10;99.90
33955;DHT22;20233;50.804;7.126;2023-08-07T15:26:57;19.20;99.90
33955;DHT22;20233;50.804;7.126;2023-08-07T15:29:28;19.30;99.90
33955;DHT22;20233;50.804;7.126;2023-08-07T15:31:55;19.20;99.90
33955;DHT22;20233;50.804;7.126;2023-08-07T15:34:21;19.30;99.90
33955;DHT22;20233;50.804;7.126;2023-08-07T15:36:48;19.30;99.90
33955;DHT22;20233;50.804;7.126;2023-08-07T15:39:15;19.70;99.90
33955;DHT22;20233;50.804;7.126;2023-08-07T15:41:41;19.90;99.90
33955;DHT22;20233;50.804;7.126;2023-08-07T15:44:08;20.00;99.90
33955;DHT22;20233;50.804;7.126;2023-08-07T15:46:34;20.00;99.90